Time,TemperatureF,DewpointF,PressureIn,WindDirection,WindDirectionDegrees,WindSpeedMPH,WindSpeedGustMPH,Humidity,HourlyPrecipIn,Conditions,Clouds,dailyrainin,SolarRadiationWatts/m^2,SoftwareType,DateUTC
2013-02-12 00:01:00,57.0,56.0,-100.00,NNW,340,3.0,7.0,97,0.00,,,1.58,0.000000,,2013-02-12 06:01:00,
2013-02-12 00:12:00,57.0,56.0,-100.00,NNW,340,3.0,7.0,97,0.00,,,1.58,0.000000,,2013-02-12 06:12:00,
2013-02-12 00:32:00,57.0,56.0,-100.00,North,3,4.0,8.0,97,0.00,,,0.66,0.000000,,2013-02-12 06:32:00,
2013-02-12 00:42:00,57.0,56.0,-100.00,North,3,4.0,8.0,97,0.00,,,0.66,0.000000,,2013-02-12 06:42:00,
2013-02-12 00:52:00,57.0,56.0,-100.00,North,3,4.0,8.0,97,0.00,,,0.66,0.000000,,2013-02-12 06:52:00,
2013-02-12 01:01:00,57.0,56.0,-100.00,North,3,4.0,8.0,97,0.00,,,0.66,0.000000,,2013-02-12 07:01:00,
2013-02-12 01:11:00,57.0,56.0,-100.00,North,3,4.0,8.0,97,0.00,,,0.66,0.000000,,2013-02-12 07:11:00,
2013-02-12 01:42:00,57.0,56.0,-100.00,NE,49,1.0,7.0,97,0.01,,,0.67,0.000000,,2013-02-12 07:42:00,
2013-02-12 01:52:00,57.0,56.0,-100.00,NE,49,1.0,7.0,97,0.01,,,0.67,0.000000,,2013-02-12 07:52:00,
2013-02-12 02:01:00,57.0,56.0,-100.00,NE,49,1.0,7.0,97,0.01,,,0.67,0.000000,,2013-02-12 08:01:00,
2013-02-12 02:11:00,57.0,56.0,-100.00,NE,49,1.0,7.0,97,0.01,,,0.67,0.000000,,2013-02-12 08:11:00,
2013-02-12 02:42:00,57.0,56.0,-100.00,North,2,3.0,6.0,97,0.00,,,0.67,0.000000,,2013-02-12 08:42:00,
2013-02-12 02:52:00,57.0,56.0,-100.00,North,2,3.0,6.0,97,0.00,,,0.67,0.000000,,2013-02-12 08:52:00,
2013-02-12 03:01:00,57.0,56.0,-100.00,North,2,3.0,6.0,97,0.00,,,0.67,0.000000,,2013-02-12 09:01:00,
2013-02-12 03:11:00,57.0,56.0,-100.00,North,2,3.0,6.0,97,0.00,,,0.67,0.000000,,2013-02-12 09:11:00,
2013-02-12 03:42:00,56.0,55.0,-100.00,NNE,12,3.0,8.0,97,0.00,,,0.65,0.000000,,2013-02-12 09:42:00,
2013-02-12 03:52:00,56.0,55.0,-100.00,NNE,12,3.0,8.0,97,0.00,,,0.65,0.000000,,2013-02-12 09:52:00,
2013-02-12 04:01:00,56.0,55.0,-100.00,NNE,12,3.0,8.0,97,0.00,,,0.65,0.000000,,2013-02-12 10:01:00,
2013-02-12 04:11:00,56.0,55.0,-100.00,NNE,12,3.0,8.0,97,0.00,,,0.65,0.000000,,2013-02-12 10:11:00,
2013-02-12 04:43:00,56.0,55.0,-100.00,North,4,5.0,10.0,97,0.00,,,-99.99,0.000000,,2013-02-12 10:43:00,
2013-02-12 04:52:00,56.0,55.0,-100.00,North,4,5.0,10.0,97,0.00,,,-99.99,0.000000,,2013-02-12 10:52:00,
2013-02-12 05:01:00,56.0,55.0,-100.00,North,4,5.0,10.0,97,0.00,,,-99.99,0.000000,,2013-02-12 11:01:00,
2013-02-12 05:11:00,56.0,55.0,-100.00,North,4,5.0,10.0,97,0.00,,,-99.99,0.000000,,2013-02-12 11:11:00,
2013-02-12 05:42:00,56.0,55.0,-100.00,NE,50,3.0,13.0,97,0.00,,,0.64,0.000000,,2013-02-12 11:42:00,
2013-02-12 05:52:00,56.0,55.0,-100.00,NE,50,3.0,13.0,97,0.00,,,0.64,0.000000,,2013-02-12 11:52:00,
2013-02-12 06:01:00,56.0,55.0,-100.00,NE,50,3.0,13.0,97,0.00,,,0.64,0.000000,,2013-02-12 12:01:00,
2013-02-12 06:11:00,56.0,55.0,-100.00,NE,50,3.0,13.0,97,0.00,,,0.64,0.000000,,2013-02-12 12:11:00,
2013-02-12 06:32:00,56.0,55.0,-100.00,NNE,32,3.0,11.0,97,0.00,,,0.64,0.000000,,2013-02-12 12:32:00,
2013-02-12 06:42:00,56.0,55.0,-100.00,NNE,32,3.0,11.0,97,0.00,,,0.64,0.000000,,2013-02-12 12:42:00,
2013-02-12 06:53:00,56.0,55.0,-100.00,NNE,32,3.0,11.0,97,0.00,,,0.64,0.000000,,2013-02-12 12:53:00,
2013-02-12 07:01:00,56.0,55.0,-100.00,NNE,32,3.0,11.0,97,0.00,,,0.64,0.000000,,2013-02-12 13:01:00,
2013-02-12 07:11:00,56.0,55.0,-100.00,NNE,32,3.0,11.0,97,0.00,,,0.64,0.000000,,2013-02-12 13:11:00,
2013-02-12 07:42:00,56.0,55.0,-100.00,NE,46,3.0,12.0,95,0.00,,,0.64,7.000000,,2013-02-12 13:42:00,
2013-02-12 07:52:00,56.0,55.0,-100.00,NE,46,3.0,12.0,95,0.00,,,0.64,7.000000,,2013-02-12 13:52:00,
2013-02-12 08:01:00,56.0,55.0,-100.00,NE,46,3.0,12.0,95,0.00,,,0.64,7.000000,,2013-02-12 14:01:00,
2013-02-12 08:12:00,56.0,55.0,-100.00,NE,46,3.0,12.0,95,0.00,,,0.64,7.000000,,2013-02-12 14:12:00,
2013-02-12 08:42:00,57.0,55.0,-100.00,East,82,4.0,11.0,93,0.00,,,0.63,53.000000,,2013-02-12 14:42:00,
2013-02-12 08:52:00,57.0,55.0,-100.00,East,82,4.0,11.0,93,0.00,,,0.63,53.000000,,2013-02-12 14:52:00,
2013-02-12 09:02:00,57.0,55.0,-100.00,East,82,4.0,11.0,93,0.00,,,0.63,53.000000,,2013-02-12 15:02:00,
2013-02-12 09:11:00,57.0,55.0,-100.00,East,82,4.0,11.0,93,0.00,,,0.63,53.000000,,2013-02-12 15:11:00,
2013-02-12 09:42:00,58.0,56.0,-100.00,East,89,4.0,14.0,92,0.00,,,0.63,78.000000,,2013-02-12 15:42:00,
2013-02-12 09:52:00,58.0,56.0,-100.00,East,89,4.0,14.0,92,0.00,,,0.63,78.000000,,2013-02-12 15:52:00,
2013-02-12 10:01:00,58.0,56.0,-100.00,East,89,4.0,14.0,92,0.00,,,0.63,78.000000,,2013-02-12 16:01:00,
2013-02-12 10:11:00,58.0,56.0,-100.00,East,89,4.0,14.0,92,0.00,,,0.63,78.000000,,2013-02-12 16:11:00,
2013-02-12 10:32:00,59.0,56.0,-100.00,East,86,3.0,10.0,89,0.00,,,0.63,111.000000,,2013-02-12 16:32:00,
2013-02-12 10:42:00,59.0,56.0,-100.00,East,86,3.0,10.0,89,0.00,,,0.63,111.000000,,2013-02-12 16:42:00,
2013-02-12 10:52:00,59.0,56.0,-100.00,East,86,3.0,10.0,89,0.00,,,0.63,111.000000,,2013-02-12 16:52:00,
2013-02-12 11:01:00,59.0,56.0,-100.00,East,86,3.0,10.0,89,0.00,,,0.63,111.000000,,2013-02-12 17:01:00,
2013-02-12 11:12:00,59.0,56.0,-100.00,East,86,3.0,10.0,89,0.00,,,0.63,111.000000,,2013-02-12 17:12:00,
2013-02-12 11:42:00,59.0,56.0,-100.00,ENE,72,4.0,13.0,90,0.00,,,0.28,90.000000,,2013-02-12 17:42:00,
2013-02-12 11:52:00,59.0,56.0,-100.00,ENE,72,4.0,13.0,90,0.00,,,0.28,90.000000,,2013-02-12 17:52:00,
2013-02-12 12:01:00,59.0,56.0,-100.00,ENE,72,4.0,13.0,90,0.00,,,0.28,90.000000,,2013-02-12 18:01:00,
2013-02-12 12:11:00,59.0,56.0,-100.00,ENE,72,4.0,13.0,90,0.00,,,0.28,90.000000,,2013-02-12 18:11:00,
2013-02-12 12:42:00,60.0,57.0,-100.00,East,99,6.0,10.0,89,0.00,,,0.24,152.000000,,2013-02-12 18:42:00,
2013-02-12 12:52:00,60.0,57.0,-100.00,East,99,6.0,10.0,89,0.00,,,0.24,152.000000,,2013-02-12 18:52:00,
2013-02-12 13:02:00,60.0,57.0,-100.00,East,99,6.0,10.0,89,0.00,,,0.24,152.000000,,2013-02-12 19:02:00,
2013-02-12 13:11:00,60.0,57.0,-100.00,East,99,6.0,10.0,89,0.00,,,0.24,152.000000,,2013-02-12 19:11:00,
2013-02-12 13:42:00,61.0,58.0,-100.00,ESE,111,6.0,13.0,90,0.00,,,-99.99,100.000000,,2013-02-12 19:42:00,
2013-02-12 13:52:00,61.0,58.0,-100.00,ESE,111,6.0,13.0,90,0.00,,,-99.99,100.000000,,2013-02-12 19:52:00,
2013-02-12 14:01:00,61.0,58.0,-100.00,ESE,111,6.0,13.0,90,0.00,,,-99.99,100.000000,,2013-02-12 20:01:00,
2013-02-12 14:11:00,61.0,58.0,-100.00,ESE,111,6.0,13.0,90,0.00,,,-99.99,100.000000,,2013-02-12 20:11:00,
2013-02-12 14:42:00,61.0,59.0,-100.00,ESE,121,6.0,11.0,92,0.00,,,0.13,101.000000,,2013-02-12 20:42:00,
2013-02-12 14:52:00,61.0,59.0,-100.00,ESE,121,6.0,11.0,92,0.00,,,0.13,101.000000,,2013-02-12 20:52:00,
2013-02-12 15:01:00,61.0,59.0,-100.00,ESE,121,6.0,11.0,92,0.00,,,0.13,101.000000,,2013-02-12 21:01:00,
2013-02-12 15:11:00,61.0,59.0,-100.00,ESE,121,6.0,11.0,92,0.00,,,0.13,101.000000,,2013-02-12 21:11:00,
2013-02-12 15:42:00,61.0,59.0,-100.00,ESE,115,6.0,13.0,93,0.00,,,0.10,46.000000,,2013-02-12 21:42:00,
2013-02-12 15:52:00,61.0,59.0,-100.00,ESE,115,6.0,13.0,93,0.00,,,0.10,46.000000,,2013-02-12 21:52:00,
2013-02-12 16:01:00,61.0,59.0,-100.00,ESE,115,6.0,13.0,93,0.00,,,0.10,46.000000,,2013-02-12 22:01:00,
2013-02-12 16:12:00,61.0,59.0,-100.00,ESE,115,6.0,13.0,93,0.00,,,0.10,46.000000,,2013-02-12 22:12:00,
2013-02-12 16:42:00,60.0,59.0,-100.00,NNE,13,4.0,14.0,97,1.03,,,1.09,11.000000,,2013-02-12 22:42:00,
2013-02-12 16:52:00,60.0,59.0,-100.00,NNE,13,4.0,14.0,97,1.03,,,1.09,11.000000,,2013-02-12 22:52:00,
2013-02-12 17:01:00,60.0,59.0,-100.00,NNE,13,4.0,14.0,97,1.03,,,1.09,11.000000,,2013-02-12 23:01:00,
2013-02-12 17:11:00,60.0,59.0,-100.00,NNE,13,4.0,14.0,97,1.03,,,1.09,11.000000,,2013-02-12 23:11:00,
2013-02-12 17:42:00,60.0,59.0,-100.00,ENE,58,1.0,8.0,97,0.08,,,1.16,9.000000,,2013-02-12 23:42:00,
2013-02-12 17:52:00,60.0,59.0,-100.00,ENE,58,1.0,8.0,97,0.08,,,1.16,9.000000,,2013-02-12 23:52:00,
2013-02-12 18:02:00,60.0,59.0,-100.00,ENE,58,1.0,8.0,97,0.08,,,1.16,9.000000,,2013-02-13 00:02:00,
2013-02-12 18:11:00,60.0,59.0,-100.00,ENE,58,1.0,8.0,97,0.08,,,1.16,9.000000,,2013-02-13 00:11:00,
2013-02-12 18:42:00,60.0,59.0,-100.00,NNE,16,2.0,5.0,98,0.03,,,1.17,0.000000,,2013-02-13 00:42:00,
2013-02-12 18:52:00,60.0,59.0,-100.00,NNE,16,2.0,5.0,98,0.03,,,1.17,0.000000,,2013-02-13 00:52:00,
2013-02-12 19:01:00,60.0,59.0,-100.00,NNE,16,2.0,5.0,98,0.03,,,1.17,0.000000,,2013-02-13 01:01:00,
2013-02-12 19:11:00,60.0,59.0,-100.00,NNE,16,2.0,5.0,98,0.03,,,1.17,0.000000,,2013-02-13 01:11:00,
2013-02-12 20:42:00,60.0,59.0,-100.00,North,360,2.0,6.0,98,-99.99,,,1.29,0.000000,,2013-02-13 02:42:00,
2013-02-12 20:52:00,60.0,59.0,-100.00,North,360,2.0,6.0,98,-99.99,,,1.29,0.000000,,2013-02-13 02:52:00,
2013-02-12 21:01:00,60.0,59.0,-100.00,North,360,2.0,6.0,98,-99.99,,,1.29,0.000000,,2013-02-13 03:01:00,
2013-02-12 21:11:00,60.0,59.0,-100.00,North,360,2.0,6.0,98,-99.99,,,1.29,0.000000,,2013-02-13 03:11:00,
2013-02-12 21:42:00,59.0,58.0,-100.00,North,4,1.0,5.0,98,0.01,,,1.30,0.000000,,2013-02-13 03:42:00,
2013-02-12 21:52:00,59.0,58.0,-100.00,North,4,1.0,5.0,98,0.01,,,1.30,0.000000,,2013-02-13 03:52:00,
2013-02-12 22:01:00,59.0,58.0,-100.00,North,4,1.0,5.0,98,0.01,,,1.30,0.000000,,2013-02-13 04:01:00,
2013-02-12 22:11:00,59.0,58.0,-100.00,North,4,1.0,5.0,98,0.01,,,1.30,0.000000,,2013-02-13 04:11:00,
2013-02-12 22:42:00,59.0,58.0,-100.00,North,10,1.0,4.0,98,0.00,,,1.30,0.000000,,2013-02-13 04:42:00,
2013-02-12 22:52:00,59.0,58.0,-100.00,North,10,1.0,4.0,98,0.00,,,1.30,0.000000,,2013-02-13 04:52:00,
2013-02-12 23:01:00,59.0,58.0,-100.00,North,10,1.0,4.0,98,0.00,,,1.30,0.000000,,2013-02-13 05:01:00,
2013-02-12 23:11:00,59.0,58.0,-100.00,North,10,1.0,4.0,98,0.00,,,1.30,0.000000,,2013-02-13 05:11:00,
2013-02-12 23:32:00,59.0,58.0,-100.00,NNE,16,0.0,4.0,98,0.00,,,1.30,0.000000,,2013-02-13 05:32:00,
2013-02-12 23:42:00,59.0,58.0,-100.00,NNE,16,0.0,4.0,98,0.00,,,1.30,0.000000,,2013-02-13 05:42:00,
2013-02-12 23:52:00,59.0,58.0,-100.00,NNE,16,0.0,4.0,98,0.00,,,1.30,0.000000,,2013-02-13 05:52:00,